Van Meter, IA (50261)

7:32 AM CDT on August 19, 2017 (GMT -0500)
Van Meter, Iowa | | Change Station

Elev 880 ft 41.53 °N, 93.95 °W | Updated 4 seconds ago

Clear
Clear
63.6 °F
Feels Like 63.6 °F
N
0.0
Wind Variable Wind from ENE
Gusts 0.0 mph

Today
High -- | Low -- °F
--% Chance of Precip.
Yesterday
High -- | Low -- °F
Precip. -- in
Pressure 29.91 in
Visibility 10.0 miles
Clouds Few 20000 ft
Few 30000 ft
Dew Point 62 °F
Humidity 95%
Rainfall 0.00 in
Snow Depth Not available.
6:28 AM 8:08 PM
Waning Crescent, 7% visible
METAR KDSM 191154Z 13004KT 10SM FEW200 FEW300 18/17 A2992 RMK AO2 SLP126 T01830167 10228 20183 53005
Pressure 29.91 in
Visibility 10.0 miles
Clouds Few 20000 ft
Few 30000 ft
Dew Point 62 °F
Humidity 95%
Rainfall 0.00 in
Snow Depth Not available.
6:28 AM 8:08 PM
Waning Crescent, 7% visible
METAR KDSM 191154Z 13004KT 10SM FEW200 FEW300 18/17 A2992 RMK AO2 SLP126 T01830167 10228 20183 53005

Get Severe Weather Alerts

Thanks for signing up!

Be on the lookout for a verification email in your inbox.

You'll start receiving the daily forecast at 6 AM.

×

10-Day Weather Forecast

Almanac

Astronomy

Aug. 19, 2017 Rise Set
Actual Time
Civil Twilight
Nautical Twilight
Astronomical Twilight
Moon
Length of Visible Light
Length of Day
Tomorrow will be .
, % of the Moon is Illuminated

Today's Extremes

State Highs State Lows

Community

WunderPhotos

Category 6

Welcome to Category 6. This is the collective home for Weather Underground's featured writeups by Dr. Jeff Masters (right), Bob Henson (left), Chris Burt, and other regular contributors.

Nearby

Air Quality

  Air Quality AQ Index Pollutant
Not available.

Snow Depth

Station Depth Elevation

Earthquake Activity

City Distance Mag. Time & Date
Minimum magnitude displayed is 2.5.

Coastal Water Temperatures

Place Temperature

Stations

Nearby Weather Stations

Station Location Temp. Windchill Dew Point Humidity Wind Precip. Elev Updated Type
                   

Watches & Warnings

There are currently no watches in effect.